Time;durP1;ratioP1;P1;durP2;ratioP2;P2;SDS_P1;SDS_P2;PMS_P1;PMS_P2;Temp;Humidity;BMP_temperature;BMP_pressure;BME280_temperature;BME280_humidity;BME280_pressure;Samples;Min_cycle;Max_cycle;Signal;HPM_P1;HPM_P2
2024/05/05 00:03:52;;;;;;;2.92;1.40;;;20.20;66.30;;;;;;6531611;43;110372;-72
2024/05/05 00:09:00;;;;;;;3.58;1.58;;;20.20;66.30;;;;;;6531996;43;110205;-72
2024/05/05 00:14:09;;;;;;;3.20;1.38;;;20.20;66.30;;;;;;6542525;43;112927;-77
2024/05/05 00:19:15;;;;;;;2.60;1.30;;;20.20;66.30;;;;;;6531806;43;114219;-78
2024/05/05 00:24:20;;;;;;;3.13;1.38;;;20.20;66.30;;;;;;6533354;43;114275;-81
2024/05/05 00:29:28;;;;;;;3.30;1.35;;;20.20;66.30;;;;;;6532376;43;115063;-81
2024/05/05 00:34:34;;;;;;;2.97;1.25;;;20.20;66.30;;;;;;6533673;43;117162;-79
2024/05/05 00:39:39;;;;;;;2.78;1.40;;;20.20;66.20;;;;;;6531419;43;115493;-80
2024/05/05 00:44:47;;;;;;;3.22;1.40;;;20.10;66.00;;;;;;6531927;43;114828;-80
2024/05/05 00:49:52;;;;;;;;;;;20.20;66.10;;;;;;6532886;43;113665;-78
2024/05/05 00:54:57;;;;;;;4.53;1.50;;;20.20;66.10;;;;;;6534675;43;114347;-78
2024/05/05 01:00:07;;;;;;;4.00;1.80;;;20.10;66.10;;;;;;6532074;43;111343;-75
2024/05/05 01:05:13;;;;;;;4.05;1.63;;;20.10;66.00;;;;;;6531160;43;111469;-80
2024/05/05 01:10:19;;;;;;;4.40;1.83;;;20.10;66.10;;;;;;6530405;43;110664;-79
2024/05/05 01:15:27;;;;;;;4.60;1.90;;;20.10;66.00;;;;;;6530904;43;110561;-78
2024/05/05 01:20:33;;;;;;;5.03;1.80;;;20.10;66.00;;;;;;6534327;43;110511;-79
2024/05/05 01:25:41;;;;;;;4.45;1.90;;;20.10;66.00;;;;;;6531248;43;110549;-80
2024/05/05 01:30:46;;;;;;;;;;;20.10;65.90;;;;;;6531243;43;110131;-74
2024/05/05 01:35:51;;;;;;;4.45;2.00;;;20.10;65.90;;;;;;6529493;43;110273;-81
2024/05/05 01:40:59;;;;;;;4.20;1.90;;;20.10;65.80;;;;;;6536188;43;111647;-81
2024/05/05 01:46:04;;;;;;;;;;;20.10;65.80;;;;;;6530574;43;111433;-79
2024/05/05 01:51:09;;;;;;;6.93;2.60;;;20.10;65.80;;;;;;6561184;43;111547;-77
2024/05/05 01:56:17;;;;;;;6.10;2.90;;;20.10;65.70;;;;;;6586494;43;111646;-79
2024/05/05 02:01:23;;;;;;;7.35;2.90;;;20.00;65.60;;;;;;6581765;43;111061;-79
2024/05/05 02:06:29;;;;;;;7.13;3.30;;;20.00;65.60;;;;;;6535366;43;113629;-82
2024/05/05 02:11:36;;;;;;;8.25;3.42;;;20.00;65.60;;;;;;6533455;43;114408;-77
2024/05/05 02:16:42;;;;;;;7.35;3.33;;;20.00;65.60;;;;;;6536824;43;115008;-78
2024/05/05 02:21:51;;;;;;;8.25;3.60;;;20.00;65.60;;;;;;6588741;43;113678;-80
2024/05/05 02:26:59;;;;;;;7.47;3.25;;;20.10;65.60;;;;;;6580133;43;114811;-81
2024/05/05 02:32:04;;;;;;;7.20;3.47;;;20.10;65.60;;;;;;6531532;43;115407;-76
2024/05/05 02:37:09;;;;;;;8.43;3.55;;;20.00;65.60;;;;;;6532757;43;115132;-79
2024/05/05 02:42:17;;;;;;;7.93;3.65;;;20.00;65.60;;;;;;6534858;43;116130;-78
2024/05/05 02:47:22;;;;;;;7.95;3.33;;;20.10;65.60;;;;;;6540977;43;117421;-76
2024/05/05 02:52:28;;;;;;;7.97;3.60;;;20.10;65.60;;;;;;6530931;43;110621;-76
2024/05/05 02:57:36;;;;;;;8.18;3.63;;;20.00;65.60;;;;;;6532796;43;110688;-77
2024/05/05 03:02:41;;;;;;;7.63;3.85;;;20.00;65.60;;;;;;6586764;43;110493;-81
2024/05/05 03:07:46;;;;;;;7.53;3.45;;;20.00;65.70;;;;;;6597005;43;112719;-76
2024/05/05 03:12:54;;;;;;;7.70;3.45;;;20.00;65.70;;;;;;6588679;43;111228;-80
2024/05/05 03:17:59;;;;;;;;;;;20.00;65.80;;;;;;6593247;43;111731;-80
2024/05/05 03:23:05;;;;;;;7.95;3.67;;;20.00;65.90;;;;;;6587006;43;110659;-80
2024/05/05 03:28:14;;;;;;;8.73;3.28;;;20.00;65.90;;;;;;6596344;43;112481;-77
2024/05/05 03:33:20;;;;;;;8.35;4.00;;;20.00;65.90;;;;;;6585121;43;111737;-80
2024/05/05 03:38:25;;;;;;;8.20;3.80;;;20.00;66.00;;;;;;6594598;43;113074;-79
2024/05/05 03:43:33;;;;;;;8.35;4.22;;;20.00;65.90;;;;;;6585942;43;112483;-79
2024/05/05 03:48:39;;;;;;;9.80;4.50;;;19.90;65.90;;;;;;6536787;43;111269;-78
2024/05/05 03:53:44;;;;;;;9.45;4.68;;;20.00;66.10;;;;;;6531320;43;114197;-80
2024/05/05 03:58:52;;;;;;;11.55;4.90;;;19.90;66.00;;;;;;6529865;43;114459;-80
2024/05/05 04:03:57;;;;;;;;;;;19.90;66.10;;;;;;6532205;43;114167;-76
2024/05/05 04:09:02;;;;;;;9.98;5.38;;;20.00;66.10;;;;;;6531924;43;114448;-81
2024/05/05 04:14:10;;;;;;;11.32;5.60;;;20.00;66.80;;;;;;6542307;43;115211;-80
2024/05/05 04:19:15;;;;;;;;;;;20.00;66.80;;;;;;6532405;43;113733;-81
2024/05/05 04:24:21;;;;;;;11.02;5.90;;;20.00;66.00;;;;;;6532087;43;115392;-75
2024/05/05 04:29:29;;;;;;;11.80;6.10;;;19.90;66.00;;;;;;6533036;43;115478;-82
2024/05/05 04:34:34;;;;;;;;;;;19.90;66.10;;;;;;6534575;43;115224;-75
2024/05/05 04:39:39;;;;;;;12.10;6.47;;;19.90;66.00;;;;;;6534223;43;110254;-80
2024/05/05 04:44:47;;;;;;;11.88;6.05;;;19.90;66.10;;;;;;6534775;43;110575;-81
2024/05/05 04:49:52;;;;;;;;;;;19.90;66.00;;;;;;6535650;43;110271;-79
2024/05/05 04:54:57;;;;;;;13.25;5.68;;;19.90;66.00;;;;;;6532747;43;110527;-73
2024/05/05 05:00:06;;;;;;;12.43;5.82;;;19.90;66.00;;;;;;6574927;43;113018;-75
2024/05/05 05:05:11;;;;;;;9.85;5.20;;;19.90;66.00;;;;;;6568917;43;110924;-80
2024/05/05 05:10:17;;;;;;;9.90;4.88;;;19.90;66.00;;;;;;6537804;43;111974;-81
2024/05/05 05:15:25;;;;;;;9.65;5.03;;;19.90;66.00;;;;;;6538666;43;110630;-74
2024/05/05 05:20:30;;;;;;;9.45;4.90;;;19.90;66.00;;;;;;6574896;43;110600;-80
2024/05/05 05:25:35;;;;;;;8.55;4.50;;;19.90;66.00;;;;;;6552319;43;112758;-78
2024/05/05 05:30:43;;;;;;;8.45;4.85;;;19.90;66.10;;;;;;6541390;43;110411;-78
2024/05/05 05:35:48;;;;;;;8.30;4.32;;;19.90;66.00;;;;;;6586529;43;110710;-80
2024/05/05 05:40:54;;;;;;;9.18;4.22;;;19.90;66.00;;;;;;6589213;43;111115;-78
2024/05/05 05:46:02;;;;;;;8.15;4.38;;;19.90;66.00;;;;;;6574719;43;114658;-74
2024/05/05 05:51:08;;;;;;;7.78;4.00;;;19.90;66.00;;;;;;6528833;43;114221;-75
2024/05/05 05:56:13;;;;;;;6.55;3.58;;;19.90;66.00;;;;;;6528488;43;116018;-79
2024/05/05 06:01:21;;;;;;;6.43;3.67;;;19.90;65.90;;;;;;6558587;43;112961;-77
2024/05/05 06:06:26;;;;;;;6.90;3.78;;;19.90;66.00;;;;;;6578657;43;114502;-74
2024/05/05 06:11:34;;;;;;;8.18;3.60;;;19.90;66.00;;;;;;6590185;43;117025;-71
2024/05/05 06:16:42;;;;;;;6.30;3.28;;;19.90;66.10;;;;;;6590258;43;117680;-76
2024/05/05 06:21:47;;;;;;;;;;;19.90;66.10;;;;;;6587669;43;113784;-70
2024/05/05 06:26:52;;;;;;;7.68;3.55;;;19.90;66.00;;;;;;6591493;43;112857;-74
2024/05/05 06:32:00;;;;;;;6.88;3.30;;;19.90;66.00;;;;;;6583883;43;110952;-74
2024/05/05 06:37:06;;;;;;;7.32;3.20;;;19.90;66.00;;;;;;6584902;43;110861;-70
2024/05/05 06:42:24;;;;;;;5.85;2.95;;;19.90;66.00;;;;;;6592884;43;110786;-72
2024/05/05 06:47:31;;;;;;;6.00;3.20;;;19.90;66.00;;;;;;6588511;43;110652;-71
2024/05/05 06:52:37;;;;;;;5.32;2.90;;;19.90;66.00;;;;;;6586609;43;110438;-75
2024/05/05 06:57:42;;;;;;;5.32;2.70;;;20.00;66.20;;;;;;6588284;43;111440;-70
2024/05/05 07:02:50;;;;;;;5.25;2.65;;;20.00;66.20;;;;;;6585356;43;110356;-72
2024/05/05 07:07:55;;;;;;;5.03;2.75;;;19.90;66.30;;;;;;6587291;43;110328;-74
2024/05/05 07:13:01;;;;;;;4.97;2.63;;;19.90;66.30;;;;;;6585451;43;110589;-71
2024/05/05 07:18:09;;;;;;;6.47;2.63;;;20.00;66.40;;;;;;6585135;43;110397;-76
2024/05/05 07:23:14;;;;;;;5.07;2.50;;;19.90;66.20;;;;;;6585092;43;110322;-72
2024/05/05 07:28:20;;;;;;;5.05;2.55;;;20.00;66.40;;;;;;6586227;43;110157;-74
2024/05/05 07:33:27;;;;;;;5.10;2.58;;;20.00;66.30;;;;;;6584377;43;113686;-72
2024/05/05 07:38:33;;;;;;;4.45;2.30;;;20.00;66.30;;;;;;6584575;43;114782;-72
2024/05/05 07:43:38;;;;;;;5.20;2.70;;;20.00;66.40;;;;;;6592606;43;114766;-73
2024/05/05 07:48:46;;;;;;;5.22;2.80;;;19.90;66.30;;;;;;6586492;43;114584;-70
2024/05/05 07:53:52;;;;;;;4.45;2.55;;;20.00;66.30;;;;;;6582843;43;115837;-76
2024/05/05 07:58:57;;;;;;;4.07;2.22;;;20.00;66.40;;;;;;6583810;43;113822;-71
2024/05/05 08:04:05;;;;;;;4.85;2.42;;;20.00;66.40;;;;;;6586685;43;115896;-76
2024/05/05 08:09:11;;;;;;;4.03;2.28;;;20.00;66.40;;;;;;6423855;44;115802;-70
2024/05/05 08:14:17;;;;;;;4.32;2.05;;;20.00;66.40;;;;;;6430653;44;115826;-71
2024/05/05 08:19:25;;;;;;;4.03;2.10;;;20.00;66.50;;;;;;6425140;44;110926;-73
2024/05/05 08:24:33;;;;;;;4.53;2.00;;;20.00;66.40;;;;;;6453525;43;110938;-75
2024/05/05 08:29:40;;;;;;;3.72;1.90;;;20.00;66.50;;;;;;6591221;43;113171;-71
2024/05/05 08:34:48;;;;;;;3.73;1.90;;;20.00;66.60;;;;;;6586950;43;110770;-70
2024/05/05 08:39:53;;;;;;;;;;;20.00;66.60;;;;;;6599636;43;111270;-74
2024/05/05 08:44:59;;;;;;;3.45;1.77;;;20.00;66.60;;;;;;6597115;43;110684;-71
2024/05/05 08:50:10;;;;;;;3.17;1.77;;;20.00;66.70;;;;;;6587179;43;111005;-70
2024/05/05 08:55:24;;;;;;;3.30;1.70;;;20.00;66.70;;;;;;6590477;43;110584;-74
2024/05/05 09:00:31;;;;;;;3.28;1.70;;;20.00;66.80;;;;;;6592372;43;112502;-71
2024/05/05 09:05:42;;;;;;;3.83;1.77;;;20.00;66.80;;;;;;6586274;43;110868;-74
2024/05/05 09:10:49;;;;;;;2.58;1.40;;;20.00;66.70;;;;;;6585104;43;110800;-71
2024/05/05 09:15:56;;;;;;;4.05;1.45;;;20.00;66.70;;;;;;6587744;43;110476;-72
2024/05/05 09:21:06;;;;;;;3.47;1.50;;;20.00;66.60;;;;;;6584987;43;114688;-72
2024/05/05 09:26:12;;;;;;;2.97;1.40;;;20.10;67.50;;;;;;6583159;43;114431;-76
2024/05/05 09:31:17;;;;;;;3.20;1.50;;;20.10;66.60;;;;;;6529129;43;114980;-76
2024/05/05 09:36:28;;;;;;;2.60;1.50;;;20.10;66.70;;;;;;6528686;43;113893;-81
2024/05/05 09:41:34;;;;;;;2.20;1.27;;;20.10;66.70;;;;;;6531248;43;113121;-75
2024/05/05 09:46:43;;;;;;;2.47;1.23;;;20.10;66.80;;;;;;6527795;43;115023;-76
2024/05/05 09:52:04;;;;;;;2.33;1.38;;;20.10;66.70;;;;;;6528167;43;113800;-79
2024/05/05 09:57:15;;;;;;;3.90;1.30;;;20.10;66.70;;;;;;6528057;43;113821;-74
2024/05/05 10:02:21;;;;;;;2.00;1.10;;;20.10;66.70;;;;;;6538778;43;117451;-79
2024/05/05 10:07:30;;;;;;;1.85;1.10;;;20.10;66.50;;;;;;6527001;43;110584;-80
2024/05/05 10:12:36;;;;;;;4.43;1.13;;;20.10;66.40;;;;;;6531407;43;111670;-77
2024/05/05 10:17:41;;;;;;;1.70;0.95;;;20.10;66.40;;;;;;6529117;43;110510;-80
2024/05/05 10:22:49;;;;;;;2.20;1.02;;;20.10;66.30;;;;;;6532033;43;111084;-78
2024/05/05 10:27:54;;;;;;;;;;;20.10;66.00;;;;;;6556021;43;111077;-80
2024/05/05 10:32:59;;;;;;;2.80;0.90;;;20.20;66.10;;;;;;6588375;43;111806;-78
2024/05/05 10:38:07;;;;;;;2.85;1.08;;;20.20;66.10;;;;;;6586210;43;110062;-80
2024/05/05 10:43:21;;;;;;;1.35;0.90;;;20.20;66.00;;;;;;6587997;43;111484;-76
2024/05/05 10:48:26;;;;;;;1.77;0.90;;;20.20;65.60;;;;;;6584733;43;110264;-74
2024/05/05 10:53:34;;;;;;;2.28;1.00;;;20.10;65.40;;;;;;6589940;43;112106;-73
2024/05/05 10:58:39;;;;;;;2.03;0.95;;;20.20;65.30;;;;;;6591700;43;112776;-73
2024/05/05 11:03:47;;;;;;;1.80;1.00;;;20.20;65.20;;;;;;6584759;43;110378;-72
2024/05/05 11:08:58;;;;;;;1.13;0.80;;;20.20;65.10;;;;;;6587042;43;110964;-78
2024/05/05 11:14:04;;;;;;;1.38;0.70;;;20.20;65.10;;;;;;6583732;43;113353;-70
2024/05/05 11:19:09;;;;;;;1.33;0.70;;;20.20;65.40;;;;;;6583544;43;114615;-71
2024/05/05 11:24:17;;;;;;;1.70;0.75;;;20.20;65.30;;;;;;6584349;43;112435;-70
2024/05/05 11:29:22;;;;;;;1.58;0.80;;;20.20;65.30;;;;;;6587690;43;114250;-72
2024/05/05 11:34:27;;;;;;;1.60;0.80;;;20.30;65.20;;;;;;6590439;43;115140;-72
2024/05/05 11:39:35;;;;;;;1.10;0.60;;;20.20;65.10;;;;;;6583459;43;115583;-71
2024/05/05 11:44:40;;;;;;;;;;;20.30;65.10;;;;;;6585838;43;116394;-73
2024/05/05 11:51:00;;;;;;;0.93;0.70;;;20.30;64.70;;;;;;6488668;43;115727;-73
2024/05/05 11:56:17;;;;;;;1.20;0.70;;;20.30;64.30;;;;;;6477916;44;110433;-70
2024/05/05 12:01:27;;;;;;;1.53;0.63;;;20.30;64.20;;;;;;6478527;43;110428;-73
2024/05/05 12:06:35;;;;;;;1.35;0.70;;;20.30;64.40;;;;;;6477814;44;110855;-73
2024/05/05 12:11:45;;;;;;;1.23;0.68;;;20.30;64.40;;;;;;6480836;44;111448;-70
2024/05/05 12:16:51;;;;;;;1.60;0.70;;;20.30;64.00;;;;;;6479892;44;110437;-72
2024/05/05 12:21:56;;;;;;;1.67;0.60;;;20.30;63.80;;;;;;6479309;43;110447;-71
2024/05/05 12:27:04;;;;;;;0.95;0.60;;;20.30;63.80;;;;;;6480545;44;110484;-73
2024/05/05 12:32:23;;;;;;;1.42;0.50;;;20.30;63.60;;;;;;6476269;44;110624;-71
2024/05/05 12:37:29;;;;;;;1.33;0.60;;;20.30;63.70;;;;;;6480411;43;110590;-71
2024/05/05 12:42:37;;;;;;;1.50;0.70;;;20.40;63.90;;;;;;6478125;44;110827;-72
2024/05/05 12:47:42;;;;;;;1.83;0.60;;;20.40;64.00;;;;;;6477408;43;110317;-70
2024/05/05 12:52:49;;;;;;;1.58;0.70;;;20.30;64.00;;;;;;6478742;44;111529;-71
2024/05/05 12:57:56;;;;;;;1.00;0.47;;;20.30;64.00;;;;;;6479485;44;110916;-72
2024/05/05 13:03:02;;;;;;;1.42;0.70;;;20.40;64.10;;;;;;6478177;44;113508;-73
2024/05/05 13:08:08;;;;;;;2.05;0.60;;;20.40;64.20;;;;;;6477981;43;112970;-71
2024/05/05 13:13:16;;;;;;;1.27;0.60;;;20.40;64.30;;;;;;6477489;43;114249;-71
2024/05/05 13:18:22;;;;;;;1.48;0.63;;;20.40;64.10;;;;;;6479940;43;114206;-71
2024/05/05 13:23:27;;;;;;;0.52;0.50;;;20.40;64.10;;;;;;6480701;43;115468;-71
2024/05/05 13:28:35;;;;;;;1.77;0.55;;;20.40;64.10;;;;;;6476626;44;114633;-71
2024/05/05 13:33:40;;;;;;;1.75;0.70;;;20.40;64.10;;;;;;6477450;44;114418;-71
2024/05/05 13:38:46;;;;;;;1.08;0.57;;;20.40;64.00;;;;;;6502598;43;116160;-73
2024/05/05 13:43:54;;;;;;;0.88;0.60;;;20.40;64.10;;;;;;6530109;43;114365;-71
2024/05/05 13:48:59;;;;;;;;;;;20.40;64.00;;;;;;6535072;43;110183;-71
2024/05/05 13:54:04;;;;;;;1.15;0.50;;;20.40;64.10;;;;;;6532959;43;110581;-72
2024/05/05 13:59:13;;;;;;;2.35;0.68;;;20.40;64.10;;;;;;6539646;43;112428;-72
2024/05/05 14:04:18;;;;;;;1.05;0.52;;;20.40;64.20;;;;;;6535375;43;110133;-73
2024/05/05 14:09:23;;;;;;;1.30;0.60;;;20.40;64.20;;;;;;6540505;43;112508;-74
2024/05/05 14:14:31;;;;;;;1.42;0.57;;;20.40;64.30;;;;;;6532883;43;110548;-72
2024/05/05 14:19:37;;;;;;;0.98;0.60;;;20.40;64.30;;;;;;6532439;43;110705;-79
2024/05/05 14:24:42;;;;;;;1.55;0.70;;;20.50;64.40;;;;;;6534372;43;110525;-71
2024/05/05 14:29:50;;;;;;;1.45;0.50;;;20.40;64.30;;;;;;6534407;43;111289;-78
2024/05/05 14:34:55;;;;;;;1.42;0.60;;;20.40;64.20;;;;;;6535957;43;111754;-72
2024/05/05 14:40:01;;;;;;;1.42;0.60;;;20.40;64.20;;;;;;6538406;43;111598;-72
2024/05/05 14:45:11;;;;;;;0.80;0.50;;;20.50;64.40;;;;;;6543407;43;113321;-73
2024/05/05 14:50:16;;;;;;;0.85;0.50;;;20.50;64.50;;;;;;6532841;43;114057;-71
2024/05/05 14:55:22;;;;;;;0.88;0.50;;;20.40;64.50;;;;;;6530682;43;114855;-72
2024/05/05 15:00:30;;;;;;;1.90;0.60;;;20.40;64.50;;;;;;6530303;43;114325;-71
2024/05/05 15:05:35;;;;;;;1.42;0.60;;;20.50;64.60;;;;;;6529841;43;116117;-72
2024/05/05 15:10:48;;;;;;;1.30;0.60;;;20.40;64.60;;;;;;6531456;43;114334;-72
2024/05/05 15:15:57;;;;;;;1.20;0.60;;;20.40;64.60;;;;;;6528442;43;114297;-71
2024/05/05 15:21:03;;;;;;;2.00;0.60;;;20.40;64.70;;;;;;6526843;43;116645;-79
2024/05/05 15:26:08;;;;;;;4.13;0.63;;;20.40;64.70;;;;;;6528343;43;114330;-76
2024/05/05 15:31:16;;;;;;;0.80;0.60;;;20.40;64.90;;;;;;6488187;44;116833;-77
2024/05/05 15:36:21;;;;;;;1.38;0.60;;;20.40;64.90;;;;;;6481646;44;112230;-79
2024/05/05 15:41:27;;;;;;;1.70;0.70;;;20.40;65.20;;;;;;6478334;44;110547;-77
2024/05/05 15:46:34;;;;;;;2.17;0.73;;;20.40;65.30;;;;;;6476948;44;110686;-80
2024/05/05 15:51:40;;;;;;;1.63;0.70;;;20.40;65.50;;;;;;6481624;44;110410;-73
2024/05/05 15:56:45;;;;;;;1.35;0.60;;;20.40;65.50;;;;;;6456714;44;110882;-77
2024/05/05 16:01:53;;;;;;;1.45;0.68;;;20.40;65.60;;;;;;6492741;43;112079;-74
2024/05/05 16:06:59;;;;;;;1.85;0.63;;;20.40;65.70;;;;;;6525437;43;110561;-75
2024/05/05 16:12:07;;;;;;;;;;;20.40;66.00;;;;;;6532072;43;110489;-77
2024/05/05 16:17:15;;;;;;;1.85;0.63;;;20.40;66.20;;;;;;6527339;43;110835;-80
2024/05/05 16:22:20;;;;;;;;;;;20.40;66.50;;;;;;6535453;43;112051;-80
2024/05/05 16:27:26;;;;;;;1.33;0.70;;;20.40;66.60;;;;;;6542863;43;110485;-74
2024/05/05 16:32:33;;;;;;;1.42;0.70;;;20.40;66.70;;;;;;6587866;43;110925;-73
2024/05/05 16:37:39;;;;;;;1.77;0.70;;;20.40;66.60;;;;;;6583864;43;110933;-78
2024/05/05 16:42:44;;;;;;;1.45;0.60;;;20.40;66.90;;;;;;6582020;43;113053;-76
2024/05/05 16:47:52;;;;;;;2.15;0.90;;;20.40;67.00;;;;;;6588531;43;115107;-72
2024/05/05 16:52:57;;;;;;;1.08;0.70;;;20.40;67.00;;;;;;6582186;43;112905;-76
2024/05/05 16:58:02;;;;;;;1.23;0.60;;;20.40;67.10;;;;;;6586155;43;115970;-72
2024/05/05 17:03:10;;;;;;;1.08;0.60;;;20.40;67.10;;;;;;6584071;43;115541;-75
2024/05/05 17:08:16;;;;;;;1.23;0.60;;;20.40;67.10;;;;;;6581776;43;115544;-74
2024/05/05 17:13:21;;;;;;;1.27;0.60;;;20.40;67.20;;;;;;6588849;43;117383;-76
2024/05/05 17:18:29;;;;;;;1.67;0.60;;;20.50;67.20;;;;;;6600738;43;115245;-75
2024/05/05 17:23:35;;;;;;;2.33;0.70;;;20.50;67.10;;;;;;6581452;43;110617;-77
2024/05/05 17:28:40;;;;;;;1.33;0.70;;;20.60;67.10;;;;;;6581048;43;110297;-73
2024/05/05 17:33:49;;;;;;;1.58;0.70;;;20.60;67.10;;;;;;6582701;43;111314;-75
2024/05/05 17:38:54;;;;;;;2.25;0.60;;;20.70;67.00;;;;;;6582345;43;111590;-81
2024/05/05 17:43:59;;;;;;;2.88;0.77;;;20.70;67.00;;;;;;6584953;43;111861;-74
2024/05/05 17:49:07;;;;;;;1.05;0.52;;;20.70;66.90;;;;;;6581332;43;110635;-73
2024/05/05 17:54:13;;;;;;;1.58;0.70;;;20.70;66.80;;;;;;6580799;43;111000;-73
2024/05/05 17:59:18;;;;;;;2.83;0.95;;;20.60;66.80;;;;;;6581429;43;110401;-75
2024/05/05 18:04:27;;;;;;;2.08;0.90;;;20.60;66.90;;;;;;6584631;43;110575;-74
2024/05/05 18:09:32;;;;;;;2.65;0.90;;;20.60;67.00;;;;;;6583705;43;111177;-77
2024/05/05 18:14:38;;;;;;;3.90;1.00;;;20.60;67.10;;;;;;6585747;43;111360;-77
2024/05/05 18:19:46;;;;;;;3.45;1.00;;;20.60;67.30;;;;;;6581349;43;110447;-75
2024/05/05 18:24:51;;;;;;;2.78;0.90;;;20.60;67.20;;;;;;6584145;43;110758;-72
2024/05/05 18:29:56;;;;;;;3.45;1.20;;;20.60;67.40;;;;;;6582121;43;113110;-79
2024/05/05 18:35:04;;;;;;;2.53;1.00;;;20.50;67.50;;;;;;6585276;43;113743;-81
2024/05/05 18:40:12;;;;;;;2.45;1.00;;;20.50;67.60;;;;;;6582875;43;113525;-78
2024/05/05 18:45:17;;;;;;;3.28;1.00;;;20.50;67.80;;;;;;6587163;43;114754;-80
2024/05/05 18:50:25;;;;;;;2.53;0.93;;;20.50;68.10;;;;;;6590774;43;116608;-75
2024/05/05 18:55:31;;;;;;;3.42;1.00;;;20.50;68.20;;;;;;6583542;43;113767;-75
2024/05/05 19:00:36;;;;;;;2.50;1.00;;;20.50;68.20;;;;;;6584245;43;115384;-81
2024/05/05 19:05:44;;;;;;;1.83;0.90;;;20.50;68.20;;;;;;6585862;43;116545;-77
2024/05/05 19:10:49;;;;;;;;;;;20.50;69.20;;;;;;6589950;43;115548;-79
2024/05/05 19:15:54;;;;;;;3.08;1.10;;;20.50;68.50;;;;;;6590374;43;112590;-74
2024/05/05 19:21:02;;;;;;;3.35;1.10;;;20.50;68.60;;;;;;6583329;43;110853;-74
2024/05/05 19:26:07;;;;;;;2.13;1.00;;;20.40;68.60;;;;;;6587701;43;111762;-79
2024/05/05 19:31:13;;;;;;;3.67;1.10;;;20.40;68.70;;;;;;6583793;43;110378;-77
2024/05/05 19:36:21;;;;;;;3.17;1.10;;;20.40;68.80;;;;;;6581397;43;110316;-77
2024/05/05 19:41:30;;;;;;;2.25;1.00;;;20.40;68.90;;;;;;6582691;43;110610;-76
2024/05/05 19:46:36;;;;;;;2.45;1.10;;;20.40;69.70;;;;;;6531531;43;110585;-72
2024/05/05 19:51:44;;;;;;;3.20;1.10;;;20.40;69.10;;;;;;6564571;43;110573;-72
2024/05/05 19:56:49;;;;;;;2.83;1.02;;;20.40;69.10;;;;;;6581637;43;110693;-71
2024/05/05 20:01:54;;;;;;;2.40;1.10;;;20.40;69.20;;;;;;6590649;43;112877;-72
2024/05/05 20:07:02;;;;;;;2.03;0.90;;;20.40;69.30;;;;;;6584050;43;110713;-70
2024/05/05 20:12:08;;;;;;;1.92;0.95;;;20.40;69.40;;;;;;6592286;43;110541;-75
2024/05/05 20:17:14;;;;;;;2.85;1.20;;;20.40;69.40;;;;;;6582097;43;112795;-72
2024/05/05 20:22:31;;;;;;;2.13;1.00;;;20.40;69.60;;;;;;6589111;43;116563;-73
2024/05/05 20:27:36;;;;;;;2.63;1.05;;;20.40;69.60;;;;;;6588072;43;116195;-74
2024/05/05 20:32:42;;;;;;;3.28;1.02;;;20.40;69.70;;;;;;6580736;43;113701;-71
2024/05/05 20:38:00;;;;;;;2.45;0.98;;;20.40;69.80;;;;;;6585034;43;114404;-78
2024/05/05 20:43:06;;;;;;;2.67;1.00;;;20.40;69.80;;;;;;6583342;43;114324;-73
2024/05/05 20:48:12;;;;;;;2.22;1.00;;;20.40;69.90;;;;;;6580499;43;114584;-79
2024/05/05 20:53:21;;;;;;;3.53;1.30;;;20.40;69.90;;;;;;6581177;43;115187;-73
2024/05/05 20:58:26;;;;;;;3.10;1.23;;;20.40;70.00;;;;;;6583203;43;115362;-78
2024/05/05 21:03:31;;;;;;;2.05;1.00;;;20.30;70.00;;;;;;6517680;43;113271;-75
2024/05/05 21:08:39;;;;;;;2.17;1.02;;;20.40;70.10;;;;;;6475671;44;110508;-79
2024/05/05 21:13:44;;;;;;;;;;;20.40;70.10;;;;;;6476703;44;110637;-78
2024/05/05 21:18:50;;;;;;;2.00;1.00;;;20.40;70.10;;;;;;6477088;43;110918;-74
2024/05/05 21:23:58;;;;;;;2.88;1.10;;;20.40;70.20;;;;;;6475729;44;110889;-79
2024/05/05 21:29:03;;;;;;;;;;;20.30;70.20;;;;;;6476308;43;110600;-78
2024/05/05 21:34:08;;;;;;;3.40;1.20;;;20.30;70.30;;;;;;6476490;43;110577;-77
2024/05/05 21:39:16;;;;;;;4.00;1.25;;;20.30;70.30;;;;;;6479145;43;110588;-82
2024/05/05 21:44:21;;;;;;;2.55;1.10;;;20.40;70.50;;;;;;6477712;44;110804;-81
2024/05/05 21:49:26;;;;;;;2.70;1.10;;;20.30;70.40;;;;;;6485297;44;112668;-78
2024/05/05 21:54:36;;;;;;;2.28;1.13;;;20.30;70.40;;;;;;6477856;44;110329;-76
2024/05/05 21:59:43;;;;;;;3.53;1.30;;;20.30;70.50;;;;;;6562335;43;110448;-79
2024/05/05 22:04:49;;;;;;;4.15;1.20;;;20.30;70.60;;;;;;6583381;43;110525;-78
2024/05/05 22:09:57;;;;;;;3.20;1.30;;;20.30;70.60;;;;;;6579447;43;114748;-81
2024/05/05 22:15:02;;;;;;;2.72;1.20;;;20.30;70.70;;;;;;6585404;43;112982;-75
2024/05/05 22:20:09;;;;;;;3.17;1.10;;;20.30;70.80;;;;;;6584982;43;113609;-82
2024/05/05 22:25:17;;;;;;;2.75;1.10;;;20.40;70.80;;;;;;6587617;43;113827;-77
2024/05/05 22:30:23;;;;;;;4.03;1.30;;;20.30;70.80;;;;;;6584539;43;114526;-77
2024/05/05 22:35:28;;;;;;;1.67;0.93;;;20.30;70.80;;;;;;6585076;43;115325;-78
2024/05/05 22:40:36;;;;;;;2.17;1.13;;;20.30;70.90;;;;;;6585298;43;114838;-75
2024/05/05 22:45:42;;;;;;;2.38;1.08;;;20.30;70.90;;;;;;6590485;43;119559;-72
2024/05/05 22:50:47;;;;;;;2.33;1.13;;;20.30;70.90;;;;;;6584968;43;110650;-72
2024/05/05 22:55:55;;;;;;;3.00;1.10;;;20.40;71.00;;;;;;6584995;43;110418;-73
2024/05/05 23:01:02;;;;;;;3.20;1.08;;;20.30;71.00;;;;;;6552893;43;110188;-72
2024/05/05 23:06:08;;;;;;;2.55;1.17;;;20.30;71.00;;;;;;6593202;43;113946;-72
2024/05/05 23:11:16;;;;;;;2.20;1.20;;;20.30;71.00;;;;;;6588038;43;110123;-78
2024/05/05 23:16:21;;;;;;;2.08;1.00;;;20.30;71.10;;;;;;6585021;43;110376;-74
2024/05/05 23:21:26;;;;;;;2.38;1.13;;;20.30;71.10;;;;;;6591408;43;112323;-76
2024/05/05 23:26:34;;;;;;;1.75;0.90;;;20.30;71.10;;;;;;6585037;43;110921;-76
2024/05/05 23:31:41;;;;;;;2.33;1.00;;;20.30;71.10;;;;;;6587799;43;110750;-73
2024/05/05 23:36:46;;;;;;;2.40;1.00;;;20.30;71.10;;;;;;6593235;43;113000;-72
2024/05/05 23:41:55;;;;;;;2.13;1.10;;;20.30;71.20;;;;;;6585562;43;110755;-76
2024/05/05 23:47:00;;;;;;;2.67;1.20;;;20.40;71.20;;;;;;6585415;43;110730;-74
2024/05/05 23:52:06;;;;;;;3.08;1.20;;;20.30;71.20;;;;;;6587544;43;110925;-75
2024/05/05 23:57:14;;;;;;;2.38;1.00;;;20.30;71.30;;;;;;6585581;43;114603;-73
